sensor_id;sensor_type;location;lat;lon;timestamp;P1;durP1;ratioP1;P2;durP2;ratioP2
26014;SDS011;13793;55.388;37.844;2023-05-29T00:01:32;40.00;;;21.40;;
26014;SDS011;13793;55.388;37.844;2023-05-29T00:04:35;61.83;;;35.10;;
26014;SDS011;13793;55.388;37.844;2023-05-29T00:07:05;35.20;;;21.03;;
26014;SDS011;13793;55.388;37.844;2023-05-29T00:09:46;23.53;;;13.77;;
26014;SDS011;13793;55.388;37.844;2023-05-29T00:12:17;17.70;;;13.07;;
26014;SDS011;13793;55.388;37.844;2023-05-29T00:14:58;13.50;;;9.20;;
26014;SDS011;13793;55.388;37.844;2023-05-29T00:17:30;13.20;;;9.00;;
26014;SDS011;13793;55.388;37.844;2023-05-29T00:20:12;14.00;;;9.00;;
26014;SDS011;13793;55.388;37.844;2023-05-29T00:22:43;12.57;;;8.30;;
26014;SDS011;13793;55.388;37.844;2023-05-29T00:25:24;12.80;;;7.37;;
26014;SDS011;13793;55.388;37.844;2023-05-29T00:27:55;10.97;;;7.03;;
26014;SDS011;13793;55.388;37.844;2023-05-29T00:30:35;12.00;;;6.57;;
26014;SDS011;13793;55.388;37.844;2023-05-29T00:33:06;13.67;;;6.40;;
26014;SDS011;13793;55.388;37.844;2023-05-29T00:35:47;12.07;;;6.50;;
26014;SDS011;13793;55.388;37.844;2023-05-29T00:38:18;10.67;;;6.20;;
26014;SDS011;13793;55.388;37.844;2023-05-29T00:40:59;9.20;;;5.73;;
26014;SDS011;13793;55.388;37.844;2023-05-29T00:43:31;9.27;;;5.97;;
26014;SDS011;13793;55.388;37.844;2023-05-29T00:46:13;12.83;;;6.40;;
26014;SDS011;13793;55.388;37.844;2023-05-29T00:48:44;12.23;;;6.70;;
26014;SDS011;13793;55.388;37.844;2023-05-29T00:51:25;12.37;;;6.53;;
26014;SDS011;13793;55.388;37.844;2023-05-29T00:53:57;16.67;;;8.70;;
26014;SDS011;13793;55.388;37.844;2023-05-29T00:56:41;25.33;;;12.07;;
26014;SDS011;13793;55.388;37.844;2023-05-29T00:59:12;28.30;;;14.77;;
26014;SDS011;13793;55.388;37.844;2023-05-29T01:01:53;29.07;;;15.23;;
26014;SDS011;13793;55.388;37.844;2023-05-29T01:04:28;24.27;;;13.37;;
26014;SDS011;13793;55.388;37.844;2023-05-29T01:07:10;24.37;;;12.57;;
26014;SDS011;13793;55.388;37.844;2023-05-29T01:09:42;15.57;;;10.20;;
26014;SDS011;13793;55.388;37.844;2023-05-29T01:12:27;14.50;;;8.83;;
26014;SDS011;13793;55.388;37.844;2023-05-29T01:15:25;12.30;;;8.93;;
26014;SDS011;13793;55.388;37.844;2023-05-29T01:18:07;10.47;;;7.23;;
26014;SDS011;13793;55.388;37.844;2023-05-29T01:20:52;13.13;;;6.77;;
26014;SDS011;13793;55.388;37.844;2023-05-29T01:26:45;9.13;;;5.60;;
26014;SDS011;13793;55.388;37.844;2023-05-29T01:29:28;8.80;;;5.90;;
26014;SDS011;13793;55.388;37.844;2023-05-29T01:32:10;8.10;;;6.65;;
26014;SDS011;13793;55.388;37.844;2023-05-29T01:34:41;9.37;;;5.20;;
26014;SDS011;13793;55.388;37.844;2023-05-29T01:37:28;8.70;;;5.75;;
26014;SDS011;13793;55.388;37.844;2023-05-29T01:39:59;12.67;;;5.80;;
26014;SDS011;13793;55.388;37.844;2023-05-29T01:42:59;7.77;;;5.10;;
26014;SDS011;13793;55.388;37.844;2023-05-29T01:45:31;7.73;;;4.87;;
26014;SDS011;13793;55.388;37.844;2023-05-29T01:48:12;8.80;;;4.90;;
26014;SDS011;13793;55.388;37.844;2023-05-29T01:50:43;7.00;;;4.60;;
26014;SDS011;13793;55.388;37.844;2023-05-29T01:53:25;5.97;;;4.17;;
26014;SDS011;13793;55.388;37.844;2023-05-29T01:55:56;7.63;;;4.83;;
26014;SDS011;13793;55.388;37.844;2023-05-29T01:58:38;6.00;;;4.40;;
26014;SDS011;13793;55.388;37.844;2023-05-29T02:01:09;8.47;;;5.00;;
26014;SDS011;13793;55.388;37.844;2023-05-29T02:03:50;6.90;;;4.27;;
26014;SDS011;13793;55.388;37.844;2023-05-29T02:06:21;7.10;;;4.73;;
26014;SDS011;13793;55.388;37.844;2023-05-29T02:09:02;9.07;;;4.60;;
26014;SDS011;13793;55.388;37.844;2023-05-29T02:11:36;8.57;;;4.20;;
26014;SDS011;13793;55.388;37.844;2023-05-29T02:14:17;7.80;;;4.17;;
26014;SDS011;13793;55.388;37.844;2023-05-29T02:16:47;9.57;;;4.53;;
26014;SDS011;13793;55.388;37.844;2023-05-29T02:19:30;6.83;;;4.33;;
26014;SDS011;13793;55.388;37.844;2023-05-29T02:22:02;5.07;;;3.90;;
26014;SDS011;13793;55.388;37.844;2023-05-29T02:24:46;4.57;;;3.40;;
26014;SDS011;13793;55.388;37.844;2023-05-29T02:27:17;6.27;;;4.23;;
26014;SDS011;13793;55.388;37.844;2023-05-29T02:29:58;5.10;;;3.50;;
26014;SDS011;13793;55.388;37.844;2023-05-29T02:32:31;6.27;;;3.90;;
26014;SDS011;13793;55.388;37.844;2023-05-29T02:35:11;6.03;;;3.73;;
26014;SDS011;13793;55.388;37.844;2023-05-29T02:37:46;5.80;;;3.77;;
26014;SDS011;13793;55.388;37.844;2023-05-29T02:40:27;6.87;;;3.77;;
26014;SDS011;13793;55.388;37.844;2023-05-29T02:42:59;5.53;;;3.63;;
26014;SDS011;13793;55.388;37.844;2023-05-29T02:45:42;5.93;;;3.33;;
26014;SDS011;13793;55.388;37.844;2023-05-29T02:48:13;7.33;;;3.60;;
26014;SDS011;13793;55.388;37.844;2023-05-29T02:50:54;8.23;;;3.97;;
26014;SDS011;13793;55.388;37.844;2023-05-29T02:53:25;6.77;;;3.50;;
26014;SDS011;13793;55.388;37.844;2023-05-29T02:56:06;6.40;;;3.70;;
26014;SDS011;13793;55.388;37.844;2023-05-29T02:58:38;8.80;;;3.57;;
26014;SDS011;13793;55.388;37.844;2023-05-29T03:01:19;7.53;;;3.35;;
26014;SDS011;13793;55.388;37.844;2023-05-29T03:03:50;6.78;;;3.50;;
26014;SDS011;13793;55.388;37.844;2023-05-29T03:06:32;5.67;;;3.52;;
26014;SDS011;13793;55.388;37.844;2023-05-29T03:09:03;7.75;;;3.65;;
26014;SDS011;13793;55.388;37.844;2023-05-29T03:11:45;7.85;;;3.10;;
26014;SDS011;13793;55.388;37.844;2023-05-29T03:14:17;7.70;;;3.35;;
26014;SDS011;13793;55.388;37.844;2023-05-29T03:17:00;5.53;;;3.30;;
26014;SDS011;13793;55.388;37.844;2023-05-29T03:19:30;5.92;;;3.27;;
26014;SDS011;13793;55.388;37.844;2023-05-29T03:22:11;8.15;;;3.30;;
26014;SDS011;13793;55.388;37.844;2023-05-29T03:24:43;5.62;;;2.67;;
26014;SDS011;13793;55.388;37.844;2023-05-29T03:27:24;5.80;;;3.08;;
26014;SDS011;13793;55.388;37.844;2023-05-29T03:30:08;4.97;;;2.92;;
26014;SDS011;13793;55.388;37.844;2023-05-29T03:32:39;4.17;;;3.05;;
26014;SDS011;13793;55.388;37.844;2023-05-29T03:35:39;6.15;;;2.95;;
26014;SDS011;13793;55.388;37.844;2023-05-29T03:38:10;6.12;;;3.05;;
26014;SDS011;13793;55.388;37.844;2023-05-29T03:40:51;3.60;;;2.37;;
26014;SDS011;13793;55.388;37.844;2023-05-29T03:43:22;7.85;;;2.90;;
26014;SDS011;13793;55.388;37.844;2023-05-29T03:46:03;5.67;;;2.42;;
26014;SDS011;13793;55.388;37.844;2023-05-29T03:48:35;4.42;;;2.95;;
26014;SDS011;13793;55.388;37.844;2023-05-29T03:51:16;5.17;;;2.67;;
26014;SDS011;13793;55.388;37.844;2023-05-29T03:53:47;4.17;;;2.47;;
26014;SDS011;13793;55.388;37.844;2023-05-29T03:56:30;4.97;;;2.50;;
26014;SDS011;13793;55.388;37.844;2023-05-29T03:59:01;6.37;;;2.80;;
26014;SDS011;13793;55.388;37.844;2023-05-29T04:01:42;5.00;;;2.87;;
26014;SDS011;13793;55.388;37.844;2023-05-29T04:04:13;3.90;;;2.65;;
26014;SDS011;13793;55.388;37.844;2023-05-29T04:06:57;5.70;;;2.42;;
26014;SDS011;13793;55.388;37.844;2023-05-29T04:09:28;4.40;;;2.50;;
26014;SDS011;13793;55.388;37.844;2023-05-29T04:12:09;4.45;;;2.67;;
26014;SDS011;13793;55.388;37.844;2023-05-29T04:14:40;4.90;;;2.50;;
26014;SDS011;13793;55.388;37.844;2023-05-29T04:17:21;4.62;;;2.40;;
26014;SDS011;13793;55.388;37.844;2023-05-29T04:19:52;4.65;;;2.30;;
26014;SDS011;13793;55.388;37.844;2023-05-29T04:22:34;4.35;;;2.40;;
26014;SDS011;13793;55.388;37.844;2023-05-29T04:25:16;4.00;;;2.20;;
26014;SDS011;13793;55.388;37.844;2023-05-29T04:27:47;4.75;;;2.30;;
26014;SDS011;13793;55.388;37.844;2023-05-29T04:30:30;3.85;;;2.30;;
26014;SDS011;13793;55.388;37.844;2023-05-29T04:33:02;4.67;;;2.15;;
26014;SDS011;13793;55.388;37.844;2023-05-29T04:35:44;2.70;;;2.12;;
26014;SDS011;13793;55.388;37.844;2023-05-29T04:38:17;6.28;;;2.20;;
26014;SDS011;13793;55.388;37.844;2023-05-29T04:40:59;2.58;;;1.72;;
26014;SDS011;13793;55.388;37.844;2023-05-29T04:43:30;3.22;;;1.70;;
26014;SDS011;13793;55.388;37.844;2023-05-29T04:46:13;3.92;;;1.80;;
26014;SDS011;13793;55.388;37.844;2023-05-29T04:48:45;6.95;;;2.08;;
26014;SDS011;13793;55.388;37.844;2023-05-29T04:51:26;2.60;;;2.27;;
26014;SDS011;13793;55.388;37.844;2023-05-29T04:53:57;4.60;;;1.80;;
26014;SDS011;13793;55.388;37.844;2023-05-29T04:56:38;2.55;;;1.60;;
26014;SDS011;13793;55.388;37.844;2023-05-29T04:59:20;1.82;;;1.40;;
26014;SDS011;13793;55.388;37.844;2023-05-29T05:01:51;3.25;;;1.67;;
26014;SDS011;13793;55.388;37.844;2023-05-29T05:04:32;2.80;;;1.50;;
26014;SDS011;13793;55.388;37.844;2023-05-29T05:07:05;2.45;;;1.30;;
26014;SDS011;13793;55.388;37.844;2023-05-29T05:09:46;3.85;;;1.30;;
26014;SDS011;13793;55.388;37.844;2023-05-29T05:12:29;5.50;;;1.80;;
26014;SDS011;13793;55.388;37.844;2023-05-29T05:15:01;3.80;;;1.60;;
26014;SDS011;13793;55.388;37.844;2023-05-29T05:17:42;4.37;;;1.60;;
26014;SDS011;13793;55.388;37.844;2023-05-29T05:20:13;2.95;;;1.42;;
26014;SDS011;13793;55.388;37.844;2023-05-29T05:22:56;3.58;;;1.47;;
26014;SDS011;13793;55.388;37.844;2023-05-29T05:25:28;3.35;;;1.50;;
26014;SDS011;13793;55.388;37.844;2023-05-29T05:28:11;3.17;;;1.70;;
26014;SDS011;13793;55.388;37.844;2023-05-29T05:30:42;4.33;;;1.60;;
26014;SDS011;13793;55.388;37.844;2023-05-29T05:33:23;2.47;;;1.27;;
26014;SDS011;13793;55.388;37.844;2023-05-29T05:35:54;4.37;;;1.65;;
26014;SDS011;13793;55.388;37.844;2023-05-29T05:38:35;3.92;;;1.40;;
26014;SDS011;13793;55.388;37.844;2023-05-29T05:41:07;4.78;;;1.50;;
26014;SDS011;13793;55.388;37.844;2023-05-29T05:43:49;3.62;;;1.50;;
26014;SDS011;13793;55.388;37.844;2023-05-29T05:46:37;2.45;;;1.57;;
26014;SDS011;13793;55.388;37.844;2023-05-29T05:49:09;3.87;;;1.40;;
26014;SDS011;13793;55.388;37.844;2023-05-29T05:51:51;2.37;;;1.20;;
26014;SDS011;13793;55.388;37.844;2023-05-29T05:54:32;3.77;;;1.10;;
26014;SDS011;13793;55.388;37.844;2023-05-29T05:57:13;3.27;;;1.10;;
26014;SDS011;13793;55.388;37.844;2023-05-29T05:59:45;1.65;;;1.10;;
26014;SDS011;13793;55.388;37.844;2023-05-29T06:02:26;2.08;;;1.30;;
26014;SDS011;13793;55.388;37.844;2023-05-29T06:04:57;2.42;;;1.40;;
26014;SDS011;13793;55.388;37.844;2023-05-29T06:07:39;3.25;;;1.17;;
26014;SDS011;13793;55.388;37.844;2023-05-29T06:10:09;1.85;;;1.17;;
26014;SDS011;13793;55.388;37.844;2023-05-29T06:12:51;1.72;;;0.80;;
26014;SDS011;13793;55.388;37.844;2023-05-29T06:15:34;1.95;;;1.07;;
26014;SDS011;13793;55.388;37.844;2023-05-29T06:18:05;4.42;;;0.90;;
26014;SDS011;13793;55.388;37.844;2023-05-29T06:20:52;3.20;;;1.00;;
26014;SDS011;13793;55.388;37.844;2023-05-29T06:23:23;1.92;;;1.22;;
26014;SDS011;13793;55.388;37.844;2023-05-29T06:26:04;1.72;;;1.02;;
26014;SDS011;13793;55.388;37.844;2023-05-29T06:28:35;2.95;;;1.00;;
26014;SDS011;13793;55.388;37.844;2023-05-29T06:31:16;2.05;;;0.80;;
26014;SDS011;13793;55.388;37.844;2023-05-29T06:33:47;3.33;;;1.02;;
26014;SDS011;13793;55.388;37.844;2023-05-29T06:36:27;2.08;;;0.90;;
26014;SDS011;13793;55.388;37.844;2023-05-29T06:38:58;1.00;;;0.70;;
26014;SDS011;13793;55.388;37.844;2023-05-29T06:41:39;2.98;;;0.93;;
26014;SDS011;13793;55.388;37.844;2023-05-29T06:44:10;0.65;;;0.60;;
26014;SDS011;13793;55.388;37.844;2023-05-29T06:46:51;0.72;;;0.72;;
26014;SDS011;13793;55.388;37.844;2023-05-29T06:49:22;1.92;;;0.75;;
26014;SDS011;13793;55.388;37.844;2023-05-29T06:52:03;2.98;;;0.68;;
26014;SDS011;13793;55.388;37.844;2023-05-29T06:54:53;2.08;;;0.90;;
26014;SDS011;13793;55.388;37.844;2023-05-29T06:57:36;1.42;;;0.90;;
26014;SDS011;13793;55.388;37.844;2023-05-29T07:00:07;2.75;;;1.00;;
26014;SDS011;13793;55.388;37.844;2023-05-29T07:02:52;1.98;;;0.90;;
26014;SDS011;13793;55.388;37.844;2023-05-29T07:05:22;2.22;;;1.10;;
26014;SDS011;13793;55.388;37.844;2023-05-29T07:08:04;1.10;;;0.72;;
26014;SDS011;13793;55.388;37.844;2023-05-29T07:10:36;1.60;;;0.90;;
26014;SDS011;13793;55.388;37.844;2023-05-29T07:13:16;1.50;;;0.80;;
26014;SDS011;13793;55.388;37.844;2023-05-29T07:15:50;2.27;;;0.90;;
26014;SDS011;13793;55.388;37.844;2023-05-29T07:18:33;1.37;;;0.80;;
26014;SDS011;13793;55.388;37.844;2023-05-29T07:21:04;1.35;;;0.80;;
26014;SDS011;13793;55.388;37.844;2023-05-29T07:23:45;2.15;;;0.98;;
26014;SDS011;13793;55.388;37.844;2023-05-29T07:26:16;0.88;;;0.78;;
26014;SDS011;13793;55.388;37.844;2023-05-29T07:28:57;2.50;;;0.90;;
26014;SDS011;13793;55.388;37.844;2023-05-29T07:31:28;2.55;;;0.93;;
26014;SDS011;13793;55.388;37.844;2023-05-29T07:34:09;1.62;;;0.70;;
26014;SDS011;13793;55.388;37.844;2023-05-29T07:39:41;1.27;;;0.80;;
26014;SDS011;13793;55.388;37.844;2023-05-29T07:42:25;2.00;;;0.70;;
26014;SDS011;13793;55.388;37.844;2023-05-29T07:44:55;1.45;;;0.85;;
26014;SDS011;13793;55.388;37.844;2023-05-29T07:47:36;1.77;;;0.80;;
26014;SDS011;13793;55.388;37.844;2023-05-29T07:50:08;2.00;;;0.75;;
26014;SDS011;13793;55.388;37.844;2023-05-29T07:52:49;1.77;;;0.88;;
26014;SDS011;13793;55.388;37.844;2023-05-29T07:55:22;1.47;;;0.75;;
26014;SDS011;13793;55.388;37.844;2023-05-29T07:58:03;1.30;;;0.80;;
26014;SDS011;13793;55.388;37.844;2023-05-29T08:00:34;1.02;;;0.90;;
26014;SDS011;13793;55.388;37.844;2023-05-29T08:03:23;2.72;;;0.68;;
26014;SDS011;13793;55.388;37.844;2023-05-29T08:06:08;2.12;;;0.82;;
26014;SDS011;13793;55.388;37.844;2023-05-29T08:08:39;1.37;;;0.80;;
26014;SDS011;13793;55.388;37.844;2023-05-29T08:11:22;2.25;;;0.93;;
26014;SDS011;13793;55.388;37.844;2023-05-29T08:13:53;1.05;;;0.80;;
26014;SDS011;13793;55.388;37.844;2023-05-29T08:16:34;1.75;;;0.95;;
26014;SDS011;13793;55.388;37.844;2023-05-29T08:19:06;0.98;;;0.72;;
26014;SDS011;13793;55.388;37.844;2023-05-29T08:21:46;3.05;;;0.90;;
26014;SDS011;13793;55.388;37.844;2023-05-29T08:24:17;1.85;;;0.85;;
26014;SDS011;13793;55.388;37.844;2023-05-29T08:26:59;1.47;;;0.88;;
26014;SDS011;13793;55.388;37.844;2023-05-29T08:29:31;2.25;;;0.95;;
26014;SDS011;13793;55.388;37.844;2023-05-29T08:32:12;2.35;;;0.90;;
26014;SDS011;13793;55.388;37.844;2023-05-29T08:34:43;2.60;;;0.90;;
26014;SDS011;13793;55.388;37.844;2023-05-29T08:37:30;2.97;;;0.90;;
26014;SDS011;13793;55.388;37.844;2023-05-29T08:40:01;1.40;;;0.70;;
26014;SDS011;13793;55.388;37.844;2023-05-29T08:42:47;2.27;;;1.00;;
26014;SDS011;13793;55.388;37.844;2023-05-29T08:45:39;1.80;;;0.85;;
26014;SDS011;13793;55.388;37.844;2023-05-29T08:48:11;1.95;;;0.85;;
26014;SDS011;13793;55.388;37.844;2023-05-29T08:50:53;1.92;;;0.80;;
26014;SDS011;13793;55.388;37.844;2023-05-29T08:53:25;3.15;;;1.07;;
26014;SDS011;13793;55.388;37.844;2023-05-29T08:56:06;1.45;;;0.72;;
26014;SDS011;13793;55.388;37.844;2023-05-29T08:58:37;3.08;;;1.00;;
26014;SDS011;13793;55.388;37.844;2023-05-29T09:01:18;1.92;;;0.70;;
26014;SDS011;13793;55.388;37.844;2023-05-29T09:03:51;1.87;;;0.88;;
26014;SDS011;13793;55.388;37.844;2023-05-29T09:06:35;1.10;;;0.60;;
26014;SDS011;13793;55.388;37.844;2023-05-29T09:09:07;1.37;;;0.90;;
26014;SDS011;13793;55.388;37.844;2023-05-29T09:11:48;2.50;;;0.80;;
26014;SDS011;13793;55.388;37.844;2023-05-29T09:14:36;2.72;;;0.85;;
26014;SDS011;13793;55.388;37.844;2023-05-29T09:17:19;2.05;;;0.80;;
26014;SDS011;13793;55.388;37.844;2023-05-29T09:19:50;4.25;;;0.80;;
26014;SDS011;13793;55.388;37.844;2023-05-29T09:22:31;1.40;;;0.90;;
26014;SDS011;13793;55.388;37.844;2023-05-29T09:25:02;0.85;;;0.80;;
26014;SDS011;13793;55.388;37.844;2023-05-29T09:27:44;2.05;;;0.72;;
26014;SDS011;13793;55.388;37.844;2023-05-29T09:30:30;3.70;;;0.85;;
26014;SDS011;13793;55.388;37.844;2023-05-29T09:33:32;1.40;;;1.00;;
26014;SDS011;13793;55.388;37.844;2023-05-29T09:36:04;3.92;;;3.05;;
26014;SDS011;13793;55.388;37.844;2023-05-29T09:38:46;3.05;;;0.98;;
26014;SDS011;13793;55.388;37.844;2023-05-29T09:41:20;2.33;;;0.90;;
26014;SDS011;13793;55.388;37.844;2023-05-29T09:44:21;0.88;;;0.70;;
26014;SDS011;13793;55.388;37.844;2023-05-29T09:46:56;2.10;;;1.10;;
26014;SDS011;13793;55.388;37.844;2023-05-29T09:49:37;1.80;;;1.05;;
26014;SDS011;13793;55.388;37.844;2023-05-29T09:52:13;2.60;;;0.90;;
26014;SDS011;13793;55.388;37.844;2023-05-29T09:54:54;1.37;;;0.80;;
26014;SDS011;13793;55.388;37.844;2023-05-29T09:57:25;4.55;;;0.95;;
26014;SDS011;13793;55.388;37.844;2023-05-29T10:00:08;1.27;;;0.90;;
26014;SDS011;13793;55.388;37.844;2023-05-29T10:02:40;2.50;;;0.80;;
26014;SDS011;13793;55.388;37.844;2023-05-29T10:05:24;1.22;;;0.88;;
26014;SDS011;13793;55.388;37.844;2023-05-29T10:07:55;1.70;;;0.85;;
26014;SDS011;13793;55.388;37.844;2023-05-29T10:10:36;1.12;;;0.93;;
26014;SDS011;13793;55.388;37.844;2023-05-29T10:13:11;0.88;;;0.68;;
26014;SDS011;13793;55.388;37.844;2023-05-29T10:15:52;2.22;;;0.88;;
26014;SDS011;13793;55.388;37.844;2023-05-29T10:18:27;2.75;;;0.90;;
26014;SDS011;13793;55.388;37.844;2023-05-29T10:21:18;1.70;;;0.82;;
26014;SDS011;13793;55.388;37.844;2023-05-29T10:23:49;2.08;;;0.90;;
26014;SDS011;13793;55.388;37.844;2023-05-29T10:26:30;2.35;;;0.78;;
26014;SDS011;13793;55.388;37.844;2023-05-29T10:34:48;0.90;;;0.70;;
26014;SDS011;13793;55.388;37.844;2023-05-29T10:40:10;2.65;;;0.90;;
26014;SDS011;13793;55.388;37.844;2023-05-29T10:42:53;2.33;;;0.80;;
26014;SDS011;13793;55.388;37.844;2023-05-29T10:51:07;1.22;;;0.85;;
26014;SDS011;13793;55.388;37.844;2023-05-29T10:53:38;1.07;;;0.70;;
26014;SDS011;13793;55.388;37.844;2023-05-29T10:56:23;2.05;;;0.85;;
26014;SDS011;13793;55.388;37.844;2023-05-29T10:58:57;1.47;;;0.88;;
26014;SDS011;13793;55.388;37.844;2023-05-29T11:01:40;1.42;;;0.80;;
26014;SDS011;13793;55.388;37.844;2023-05-29T11:07:01;2.55;;;1.10;;
26014;SDS011;13793;55.388;37.844;2023-05-29T11:09:37;1.25;;;0.80;;
26014;SDS011;13793;55.388;37.844;2023-05-29T11:12:23;2.30;;;0.90;;
26014;SDS011;13793;55.388;37.844;2023-05-29T11:15:06;1.90;;;1.10;;
26014;SDS011;13793;55.388;37.844;2023-05-29T11:17:52;2.50;;;1.00;;
26014;SDS011;13793;55.388;37.844;2023-05-29T11:20:28;1.57;;;1.00;;
26014;SDS011;13793;55.388;37.844;2023-05-29T11:23:16;2.95;;;0.85;;
26014;SDS011;13793;55.388;37.844;2023-05-29T11:25:48;1.60;;;0.85;;
26014;SDS011;13793;55.388;37.844;2023-05-29T11:28:35;1.27;;;0.80;;
26014;SDS011;13793;55.388;37.844;2023-05-29T11:31:08;0.90;;;0.70;;
26014;SDS011;13793;55.388;37.844;2023-05-29T11:33:50;1.65;;;0.90;;
26014;SDS011;13793;55.388;37.844;2023-05-29T11:36:22;1.80;;;1.00;;
26014;SDS011;13793;55.388;37.844;2023-05-29T11:39:03;2.27;;;0.90;;
26014;SDS011;13793;55.388;37.844;2023-05-29T11:41:44;4.08;;;1.00;;
26014;SDS011;13793;55.388;37.844;2023-05-29T11:44:26;2.60;;;0.70;;
26014;SDS011;13793;55.388;37.844;2023-05-29T11:47:08;1.72;;;0.80;;
26014;SDS011;13793;55.388;37.844;2023-05-29T11:49:38;1.52;;;0.70;;
26014;SDS011;13793;55.388;37.844;2023-05-29T11:52:19;1.25;;;0.80;;
26014;SDS011;13793;55.388;37.844;2023-05-29T11:54:51;8.63;;;6.85;;
26014;SDS011;13793;55.388;37.844;2023-05-29T11:57:34;21.73;;;19.50;;
26014;SDS011;13793;55.388;37.844;2023-05-29T12:00:05;1.57;;;1.47;;
26014;SDS011;13793;55.388;37.844;2023-05-29T12:02:48;1.42;;;1.05;;
26014;SDS011;13793;55.388;37.844;2023-05-29T12:05:19;2.35;;;0.85;;
26014;SDS011;13793;55.388;37.844;2023-05-29T12:08:00;1.82;;;1.00;;
26014;SDS011;13793;55.388;37.844;2023-05-29T12:10:33;1.55;;;0.98;;
26014;SDS011;13793;55.388;37.844;2023-05-29T12:13:14;1.77;;;1.02;;
26014;SDS011;13793;55.388;37.844;2023-05-29T12:15:48;10.13;;;8.23;;
26014;SDS011;13793;55.388;37.844;2023-05-29T12:18:31;2.58;;;2.15;;
26014;SDS011;13793;55.388;37.844;2023-05-29T12:21:03;1.60;;;1.00;;
26014;SDS011;13793;55.388;37.844;2023-05-29T12:23:44;2.35;;;0.80;;
26014;SDS011;13793;55.388;37.844;2023-05-29T12:26:15;1.92;;;0.90;;
26014;SDS011;13793;55.388;37.844;2023-05-29T12:28:56;1.82;;;0.80;;
26014;SDS011;13793;55.388;37.844;2023-05-29T12:31:37;2.75;;;1.10;;
26014;SDS011;13793;55.388;37.844;2023-05-29T12:34:13;1.70;;;1.00;;
26014;SDS011;13793;55.388;37.844;2023-05-29T12:36:54;2.15;;;0.85;;
26014;SDS011;13793;55.388;37.844;2023-05-29T12:39:35;1.27;;;0.80;;
26014;SDS011;13793;55.388;37.844;2023-05-29T12:42:06;1.15;;;1.00;;
26014;SDS011;13793;55.388;37.844;2023-05-29T12:44:47;2.22;;;1.00;;
26014;SDS011;13793;55.388;37.844;2023-05-29T12:47:23;1.25;;;0.70;;
26014;SDS011;13793;55.388;37.844;2023-05-29T12:50:20;1.05;;;0.82;;
26014;SDS011;13793;55.388;37.844;2023-05-29T12:52:56;2.77;;;0.98;;
26014;SDS011;13793;55.388;37.844;2023-05-29T12:55:36;3.17;;;1.35;;
26014;SDS011;13793;55.388;37.844;2023-05-29T12:58:12;2.62;;;1.05;;
26014;SDS011;13793;55.388;37.844;2023-05-29T13:00:55;2.50;;;0.90;;
26014;SDS011;13793;55.388;37.844;2023-05-29T13:03:26;1.45;;;0.90;;
26014;SDS011;13793;55.388;37.844;2023-05-29T13:06:07;4.60;;;1.65;;
26014;SDS011;13793;55.388;37.844;2023-05-29T13:08:39;3.62;;;1.22;;
26014;SDS011;13793;55.388;37.844;2023-05-29T13:11:19;3.02;;;1.05;;
26014;SDS011;13793;55.388;37.844;2023-05-29T13:13:51;1.47;;;0.70;;
26014;SDS011;13793;55.388;37.844;2023-05-29T13:16:31;1.05;;;0.90;;
26014;SDS011;13793;55.388;37.844;2023-05-29T13:19:04;1.65;;;0.90;;
26014;SDS011;13793;55.388;37.844;2023-05-29T13:21:45;2.80;;;1.00;;
26014;SDS011;13793;55.388;37.844;2023-05-29T13:24:17;1.12;;;1.00;;
26014;SDS011;13793;55.388;37.844;2023-05-29T13:26:58;1.25;;;0.80;;
26014;SDS011;13793;55.388;37.844;2023-05-29T13:29:29;1.72;;;1.00;;
26014;SDS011;13793;55.388;37.844;2023-05-29T13:32:10;1.22;;;0.90;;
26014;SDS011;13793;55.388;37.844;2023-05-29T13:34:41;4.65;;;1.27;;
26014;SDS011;13793;55.388;37.844;2023-05-29T13:37:23;2.30;;;1.00;;
26014;SDS011;13793;55.388;37.844;2023-05-29T13:39:53;1.87;;;0.90;;
26014;SDS011;13793;55.388;37.844;2023-05-29T13:42:35;2.65;;;0.80;;
26014;SDS011;13793;55.388;37.844;2023-05-29T13:45:06;3.25;;;1.00;;
26014;SDS011;13793;55.388;37.844;2023-05-29T13:47:47;2.95;;;1.10;;
26014;SDS011;13793;55.388;37.844;2023-05-29T13:50:18;2.50;;;1.00;;
26014;SDS011;13793;55.388;37.844;2023-05-29T13:53:00;2.85;;;1.27;;
26014;SDS011;13793;55.388;37.844;2023-05-29T13:55:31;1.60;;;1.25;;
26014;SDS011;13793;55.388;37.844;2023-05-29T13:58:12;2.12;;;0.88;;
26014;SDS011;13793;55.388;37.844;2023-05-29T14:00:43;2.52;;;0.90;;
26014;SDS011;13793;55.388;37.844;2023-05-29T14:03:25;1.20;;;0.78;;
26014;SDS011;13793;55.388;37.844;2023-05-29T14:05:57;2.20;;;1.10;;
26014;SDS011;13793;55.388;37.844;2023-05-29T14:08:38;2.27;;;0.95;;
26014;SDS011;13793;55.388;37.844;2023-05-29T14:11:09;3.12;;;1.10;;
26014;SDS011;13793;55.388;37.844;2023-05-29T14:13:50;1.82;;;0.90;;
26014;SDS011;13793;55.388;37.844;2023-05-29T14:16:21;3.05;;;1.00;;
26014;SDS011;13793;55.388;37.844;2023-05-29T14:19:02;3.55;;;0.95;;
26014;SDS011;13793;55.388;37.844;2023-05-29T14:21:32;3.80;;;1.30;;
26014;SDS011;13793;55.388;37.844;2023-05-29T14:24:14;2.40;;;1.10;;
26014;SDS011;13793;55.388;37.844;2023-05-29T14:26:46;2.80;;;1.00;;
26014;SDS011;13793;55.388;37.844;2023-05-29T14:29:27;2.05;;;1.12;;
26014;SDS011;13793;55.388;37.844;2023-05-29T14:31:59;1.25;;;0.98;;
26014;SDS011;13793;55.388;37.844;2023-05-29T14:34:39;3.02;;;1.00;;
26014;SDS011;13793;55.388;37.844;2023-05-29T14:37:10;2.52;;;0.93;;
26014;SDS011;13793;55.388;37.844;2023-05-29T14:39:51;2.55;;;0.82;;
26014;SDS011;13793;55.388;37.844;2023-05-29T14:42:22;2.55;;;1.00;;
26014;SDS011;13793;55.388;37.844;2023-05-29T14:45:04;3.22;;;1.40;;
26014;SDS011;13793;55.388;37.844;2023-05-29T14:47:36;3.42;;;1.50;;
26014;SDS011;13793;55.388;37.844;2023-05-29T14:50:17;3.83;;;1.32;;
26014;SDS011;13793;55.388;37.844;2023-05-29T14:52:48;2.62;;;1.10;;
26014;SDS011;13793;55.388;37.844;2023-05-29T14:55:29;1.47;;;1.00;;
26014;SDS011;13793;55.388;37.844;2023-05-29T14:58:02;1.82;;;1.10;;
26014;SDS011;13793;55.388;37.844;2023-05-29T15:00:43;2.50;;;0.95;;
26014;SDS011;13793;55.388;37.844;2023-05-29T15:03:14;2.70;;;1.00;;
26014;SDS011;13793;55.388;37.844;2023-05-29T15:05:55;2.67;;;1.07;;
26014;SDS011;13793;55.388;37.844;2023-05-29T15:08:26;3.30;;;0.98;;
26014;SDS011;13793;55.388;37.844;2023-05-29T15:11:31;1.57;;;0.80;;
26014;SDS011;13793;55.388;37.844;2023-05-29T15:14:02;1.77;;;0.90;;
26014;SDS011;13793;55.388;37.844;2023-05-29T15:16:43;2.37;;;1.00;;
26014;SDS011;13793;55.388;37.844;2023-05-29T15:19:14;2.62;;;1.05;;
26014;SDS011;13793;55.388;37.844;2023-05-29T15:21:56;2.47;;;1.35;;
26014;SDS011;13793;55.388;37.844;2023-05-29T15:24:27;2.90;;;1.40;;
26014;SDS011;13793;55.388;37.844;2023-05-29T15:27:07;1.80;;;1.30;;
26014;SDS011;13793;55.388;37.844;2023-05-29T15:29:41;2.75;;;1.20;;
26014;SDS011;13793;55.388;37.844;2023-05-29T15:32:21;2.52;;;1.20;;
26014;SDS011;13793;55.388;37.844;2023-05-29T15:34:52;2.62;;;1.05;;
26014;SDS011;13793;55.388;37.844;2023-05-29T15:37:33;1.35;;;1.10;;
26014;SDS011;13793;55.388;37.844;2023-05-29T15:40:05;1.92;;;1.20;;
26014;SDS011;13793;55.388;37.844;2023-05-29T15:42:51;3.55;;;1.15;;
26014;SDS011;13793;55.388;37.844;2023-05-29T15:45:32;2.65;;;1.25;;
26014;SDS011;13793;55.388;37.844;2023-05-29T15:48:03;1.45;;;0.90;;
26014;SDS011;13793;55.388;37.844;2023-05-29T15:50:44;2.50;;;1.15;;
26014;SDS011;13793;55.388;37.844;2023-05-29T15:53:15;2.65;;;1.40;;
26014;SDS011;13793;55.388;37.844;2023-05-29T15:55:56;4.85;;;1.50;;
26014;SDS011;13793;55.388;37.844;2023-05-29T15:58:27;2.35;;;1.12;;